Bunker Hill, WV (25413)

9:58 AM EST on February 09, 2016 (GMT -0500)
Baker Estates | | Change Station
CLOSE
Current Station
Personal Weather Station
Location: Bunker Hill, WV
Elevation: 577 ft
Nearby Weather Stations
Active Advisory: Winter Weather Advisory Active Notice: Public Information Statement

Elev 577 ft 39.29 °N, 78.05 °W | Updated 24 seconds ago

Snow
Snow
35.8 °F
Feels Like 36 °F
N
1.0
Wind Variable Wind from WNW
Gusts 2.0 mph

Today
High -- | Low -- °F
--% Chance of Precip.
Yesterday
High -- | Low -- °F
Precip. -- in
Pressure 29.57 in
Visibility 5.0 miles
Clouds Mostly Cloudy 2300 ft
Overcast 3000 ft
Windchill 36 °F
Dew Point 33 °F
Humidity 91%
Rainfall 0.02 in
Snow Depth Not available.
7:11 AM 5:41 PM
New Moon, 1% visible
METAR KMRB 091453Z 28006KT 5SM BR BKN023 OVC030 02/01 A2956 RMK AO2 SNE50 SLP014 P0004 60004 T00170006 50002
Pressure 29.57 in
Visibility 5.0 miles
Clouds Mostly Cloudy 2300 ft
Overcast 3000 ft
Windchill 36 °F
Dew Point 33 °F
Humidity 91%
Rainfall 0.02 in
Snow Depth Not available.
7:11 AM 5:41 PM
New Moon, 1% visible
METAR KMRB 091453Z 28006KT 5SM BR BKN023 OVC030 02/01 A2956 RMK AO2 SNE50 SLP014 P0004 60004 T00170006 50002

10-Day Weather Forecast

Almanac

Astronomy

Feb. 09, 2016 Rise Set
Actual Time
Civil Twilight
Nautical Twilight
Astronomical Twilight
Moon
Length of Visible Light
Length of Day
Tomorrow will be .
, % of the Moon is Illuminated

Today's Extremes

State Highs State Lows

Community

WunderPhotos

Upload Photos

1,891,614 photos uploaded!

WunderBlog® & News

Nearby

Air Quality

  Air Quality AQ Index Pollutant
Not available.

Snow Depth

Station Depth Elevation

Earthquake Activity

City Distance Mag. Time & Date
Minimum magnitude displayed is 2.5.

Coastal Water Temperatures

Place Temperature

Stations

Nearby Weather Stations

Station Location Temp. Windchill Dew Point Humidity Wind Precip. Elev Updated Type
                   

Watches & Warnings

Winter Weather Advisory
Issued: 7:55 AM EST Feb. 9, 2016 – National Weather Service

... Winter Weather Advisory remains in effect until midnight tonight...

* precipitation type... snow.

* Accumulations... snow accumulation of 1 to 3 inches... except 3
to 5 inches in Washington County.

* Timing... through this evening.

* Impacts... snow covered roads and travel disruptions.

* Winds... northwest 5 to 10 mph.

* Temperatures... lower 30s.

Precautionary/preparedness actions...

A Winter Weather Advisory for snow means that periods of snow
will cause primarily travel difficulties. Be prepared for snow
covered roads and limited visibilities... and use caution while
driving.